createdAt,value
2023-03-14T00:00:38.884Z,23.26
2023-03-14T00:01:38.854Z,23.30
2023-03-14T00:02:38.867Z,23.29
2023-03-14T00:03:38.789Z,23.31
2023-03-14T00:04:38.754Z,23.25
2023-03-14T00:05:38.724Z,23.31
2023-03-14T00:06:38.689Z,23.28
2023-03-14T00:07:38.669Z,23.28
2023-03-14T00:08:38.644Z,23.31
2023-03-14T00:09:38.618Z,23.24
2023-03-14T00:10:38.548Z,23.28
2023-03-14T00:11:38.517Z,23.25
2023-03-14T00:12:38.485Z,23.26
2023-03-14T00:13:38.451Z,23.29
2023-03-14T00:14:38.420Z,23.32
2023-03-14T00:15:38.463Z,23.31
2023-03-14T00:16:38.373Z,23.31
2023-03-14T00:17:38.362Z,23.26
2023-03-14T00:18:38.317Z,23.30
2023-03-14T00:19:38.301Z,23.32
2023-03-14T00:20:38.272Z,23.26
2023-03-14T00:21:38.221Z,23.31
2023-03-14T00:22:38.197Z,23.30
2023-03-14T00:23:38.210Z,23.32
2023-03-14T00:24:38.145Z,23.33
2023-03-14T00:25:38.135Z,23.33
2023-03-14T00:26:38.099Z,23.30
2023-03-14T00:27:38.068Z,23.29
2023-03-14T00:28:38.035Z,23.31
2023-03-14T00:29:38.005Z,23.33
2023-03-14T00:30:37.978Z,23.35
2023-03-14T00:31:38.008Z,23.33
2023-03-14T00:32:37.969Z,23.36
2023-03-14T00:33:37.886Z,23.36
2023-03-14T00:34:37.852Z,23.35
2023-03-14T00:35:37.844Z,23.30
2023-03-14T00:36:37.781Z,23.35
2023-03-14T00:37:37.761Z,23.29
2023-03-14T00:38:37.720Z,23.30
2023-03-14T00:39:37.706Z,23.30
2023-03-14T00:40:37.638Z,23.30
2023-03-14T00:41:37.610Z,23.39
2023-03-14T00:42:37.561Z,23.35
2023-03-14T00:43:37.559Z,23.32
2023-03-14T00:44:37.494Z,23.32
2023-03-14T00:45:37.477Z,23.35
2023-03-14T00:46:39.580Z,23.37
2023-03-14T00:47:37.395Z,23.29
2023-03-14T00:48:37.383Z,23.35
2023-03-14T00:49:37.335Z,23.35
2023-03-14T00:50:37.289Z,23.33
2023-03-14T00:51:37.258Z,23.36
2023-03-14T00:52:37.228Z,23.39
2023-03-14T00:53:37.196Z,23.37
2023-03-14T00:54:37.161Z,23.40
2023-03-14T00:55:37.136Z,23.37
2023-03-14T00:56:37.096Z,23.39
2023-03-14T00:57:37.052Z,23.37
2023-03-14T00:58:37.034Z,23.37
2023-03-14T00:59:36.988Z,23.40
2023-03-14T01:00:36.993Z,23.37
2023-03-14T01:01:36.998Z,23.39
2023-03-14T01:02:36.950Z,23.37
2023-03-14T01:03:36.874Z,23.40
2023-03-14T01:04:36.849Z,23.39
2023-03-14T01:05:36.824Z,23.43
2023-03-14T01:06:36.825Z,23.42
2023-03-14T01:07:36.764Z,23.39
2023-03-14T01:08:36.736Z,23.44
2023-03-14T01:09:36.738Z,23.44
2023-03-14T01:10:36.674Z,23.44
2023-03-14T01:11:36.635Z,23.44
2023-03-14T01:12:36.607Z,23.42
2023-03-14T01:13:36.586Z,23.43
2023-03-14T01:14:36.554Z,23.43
2023-03-14T01:15:36.536Z,23.41
2023-03-14T01:16:36.638Z,23.46
2023-03-14T01:17:36.454Z,23.44
2023-03-14T01:18:36.422Z,23.46
2023-03-14T01:19:36.413Z,23.43
2023-03-14T01:20:36.376Z,23.43
2023-03-14T01:21:36.345Z,23.43
2023-03-14T01:22:36.315Z,23.44
2023-03-14T01:23:36.282Z,23.46
2023-03-14T01:24:36.254Z,23.47
2023-03-14T01:25:36.213Z,23.52
2023-03-14T01:26:36.230Z,23.47
2023-03-14T01:27:36.151Z,23.53
2023-03-14T01:28:36.138Z,23.52
2023-03-14T01:29:36.087Z,23.50
2023-03-14T01:30:36.062Z,23.50
2023-03-14T01:31:36.049Z,23.53
2023-03-14T01:32:36.009Z,23.52
2023-03-14T01:33:35.960Z,23.57
2023-03-14T01:34:35.922Z,23.54
2023-03-14T01:35:35.929Z,23.56
2023-03-14T01:36:35.864Z,23.57
2023-03-14T01:37:35.841Z,23.60
2023-03-14T01:38:35.797Z,23.54
2023-03-14T01:39:35.760Z,23.60
2023-03-14T01:40:35.744Z,23.58
2023-03-14T01:41:35.731Z,23.60
2023-03-14T01:42:35.681Z,23.61
2023-03-14T01:43:35.752Z,23.58
2023-03-14T01:44:35.615Z,23.58
2023-03-14T01:45:35.632Z,23.65
2023-03-14T01:46:35.577Z,23.65
2023-03-14T01:47:35.550Z,23.65
2023-03-14T01:48:35.507Z,23.64
2023-03-14T01:49:35.471Z,23.67
2023-03-14T01:50:35.441Z,23.61
2023-03-14T01:51:35.448Z,23.63
2023-03-14T01:52:35.392Z,23.67
2023-03-14T01:53:35.355Z,23.64
2023-03-14T01:54:35.331Z,23.65
2023-03-14T01:55:35.289Z,23.68
2023-03-14T01:56:35.263Z,23.69
2023-03-14T01:57:35.230Z,23.65
2023-03-14T01:58:35.214Z,23.64
2023-03-14T01:59:35.192Z,23.69
2023-03-14T02:00:35.242Z,23.69
2023-03-14T02:01:35.159Z,23.68
2023-03-14T02:02:35.103Z,23.72
2023-03-14T02:03:35.089Z,23.71
2023-03-14T02:04:35.028Z,23.72
2023-03-14T02:05:34.997Z,23.71
2023-03-14T02:06:34.975Z,23.71
2023-03-14T02:07:34.939Z,23.75
2023-03-14T02:08:34.907Z,23.72
2023-03-14T02:09:34.891Z,23.72
2023-03-14T02:10:34.854Z,23.75
2023-03-14T02:11:34.836Z,23.75
2023-03-14T02:12:34.788Z,23.71
2023-03-14T02:13:34.753Z,23.72
2023-03-14T02:14:34.738Z,23.74
2023-03-14T02:15:34.698Z,23.71
2023-03-14T02:16:34.730Z,23.72
2023-03-14T02:17:34.650Z,23.75
2023-03-14T02:18:34.617Z,23.75
2023-03-14T02:19:34.601Z,23.76
2023-03-14T02:20:34.561Z,23.75
2023-03-14T02:21:34.525Z,23.79
2023-03-14T02:22:34.497Z,23.78
2023-03-14T02:23:34.466Z,23.81
2023-03-14T02:24:34.440Z,23.79
2023-03-14T02:25:34.390Z,23.79
2023-03-14T02:26:34.355Z,23.82
2023-03-14T02:27:34.308Z,23.82
2023-03-14T02:28:34.274Z,23.82
2023-03-14T02:29:34.237Z,23.85
2023-03-14T02:30:34.214Z,23.83
2023-03-14T02:31:34.253Z,23.84
2023-03-14T02:32:34.185Z,23.82
2023-03-14T02:33:34.113Z,23.83
2023-03-14T02:34:34.075Z,23.83
2023-03-14T02:35:34.086Z,23.84
2023-03-14T02:36:34.012Z,23.83
2023-03-14T02:37:33.990Z,23.85
2023-03-14T02:38:33.934Z,23.85
2023-03-14T02:39:33.901Z,23.87
2023-03-14T02:40:33.870Z,23.86
2023-03-14T02:41:33.834Z,23.83
2023-03-14T02:42:33.807Z,23.86
2023-03-14T02:43:33.777Z,23.83
2023-03-14T02:44:33.738Z,23.87
2023-03-14T02:45:33.764Z,23.87
2023-03-14T02:46:33.682Z,23.82
2023-03-14T02:47:33.641Z,23.87
2023-03-14T02:48:33.616Z,23.86
2023-03-14T02:49:33.593Z,23.84
2023-03-14T02:50:33.552Z,23.89
2023-03-14T02:51:33.519Z,23.90
2023-03-14T02:52:33.492Z,23.89
2023-03-14T02:53:33.456Z,23.87
2023-03-14T02:54:33.417Z,23.92
2023-03-14T02:55:33.377Z,23.92
2023-03-14T02:56:33.359Z,23.90
2023-03-14T02:57:33.315Z,23.90
2023-03-14T02:58:33.285Z,23.87
2023-03-14T02:59:33.278Z,23.90
2023-03-14T03:00:33.220Z,23.96
2023-03-14T03:01:33.166Z,23.85
2023-03-14T03:02:33.156Z,23.92
2023-03-14T03:03:33.198Z,23.92
2023-03-14T03:04:33.073Z,23.95
2023-03-14T03:05:33.033Z,23.93
2023-03-14T03:06:33.034Z,23.94
2023-03-14T03:07:32.974Z,23.89
2023-03-14T03:08:32.984Z,23.93
2023-03-14T03:09:32.892Z,23.95
2023-03-14T03:10:32.865Z,23.92
2023-03-14T03:11:32.834Z,23.95
2023-03-14T03:12:32.784Z,23.93
2023-03-14T03:13:32.768Z,23.93
2023-03-14T03:14:32.715Z,23.93
2023-03-14T03:15:32.680Z,23.95
2023-03-14T03:16:32.736Z,23.96
2023-03-14T03:17:32.626Z,23.98
2023-03-14T03:18:32.602Z,23.96
2023-03-14T03:19:32.527Z,23.99
2023-03-14T03:20:32.485Z,23.95
2023-03-14T03:21:32.452Z,24.01
2023-03-14T03:22:32.414Z,24.03
2023-03-14T03:23:32.530Z,24.00
2023-03-14T03:24:32.861Z,23.99
2023-03-14T03:25:32.309Z,23.98
2023-03-14T03:26:32.348Z,24.00
2023-03-14T03:27:32.345Z,24.01
2023-03-14T03:28:32.336Z,23.98
2023-03-14T03:29:32.162Z,24.02
2023-03-14T03:30:32.171Z,24.04
2023-03-14T03:31:32.079Z,23.97
2023-03-14T03:32:32.081Z,24.03
2023-03-14T03:33:32.866Z,24.08
2023-03-14T03:34:32.024Z,24.06
2023-03-14T03:35:31.997Z,24.04
2023-03-14T03:36:31.901Z,24.01
2023-03-14T03:37:31.882Z,24.01
2023-03-14T03:38:31.832Z,24.04
2023-03-14T03:39:31.784Z,24.07
2023-03-14T03:40:31.760Z,24.07
2023-03-14T03:41:31.721Z,24.13
2023-03-14T03:42:31.684Z,24.07
2023-03-14T03:43:31.656Z,24.04
2023-03-14T03:44:31.623Z,24.08
2023-03-14T03:45:31.594Z,24.11
2023-03-14T03:46:31.589Z,24.06
2023-03-14T03:47:31.525Z,24.14
2023-03-14T03:48:31.529Z,24.04
2023-03-14T03:49:31.481Z,24.04
2023-03-14T03:50:31.475Z,24.07
2023-03-14T03:51:31.435Z,24.07
2023-03-14T03:52:31.401Z,24.08
2023-03-14T03:53:33.998Z,24.11
2023-03-14T03:54:31.322Z,24.07
2023-03-14T03:55:31.300Z,24.08
2023-03-14T03:56:31.272Z,24.07
2023-03-14T03:57:31.234Z,24.08
2023-03-14T03:58:31.228Z,24.08
2023-03-14T03:59:31.164Z,24.11
2023-03-14T04:00:31.137Z,24.09
2023-03-14T04:01:31.105Z,24.14
2023-03-14T04:02:31.126Z,24.08
2023-03-14T04:03:31.061Z,24.09
2023-03-14T04:04:31.044Z,24.12
2023-03-14T04:05:30.981Z,24.08
2023-03-14T04:06:31.000Z,24.09
2023-03-14T04:07:31.059Z,24.09
2023-03-14T04:08:30.879Z,24.08
2023-03-14T04:09:30.865Z,24.11
2023-03-14T04:10:30.871Z,24.06
2023-03-14T04:11:30.809Z,24.11
2023-03-14T04:12:30.790Z,24.09
2023-03-14T04:13:30.750Z,24.06
2023-03-14T04:14:30.720Z,24.11
2023-03-14T04:15:30.666Z,24.10
2023-03-14T04:16:30.638Z,24.07
2023-03-14T04:17:30.629Z,24.08
2023-03-14T04:18:30.573Z,24.10
2023-03-14T04:19:30.563Z,24.13
2023-03-14T04:20:30.502Z,24.07
2023-03-14T04:21:30.459Z,24.09
2023-03-14T04:22:30.424Z,24.08
2023-03-14T04:23:30.389Z,24.09
2023-03-14T04:24:30.368Z,24.08
2023-03-14T04:25:30.398Z,24.08
2023-03-14T04:26:30.300Z,24.15
2023-03-14T04:27:30.228Z,24.11
2023-03-14T04:28:30.199Z,24.14
2023-03-14T04:29:30.162Z,24.09
2023-03-14T04:30:30.128Z,24.12
2023-03-14T04:31:30.103Z,24.14
2023-03-14T04:32:30.085Z,24.12
2023-03-14T04:33:30.031Z,24.09
2023-03-14T04:34:29.999Z,24.08
2023-03-14T04:35:29.962Z,24.09
2023-03-14T04:36:29.928Z,24.14
2023-03-14T04:37:29.879Z,24.14
2023-03-14T04:38:29.869Z,24.12
2023-03-14T04:39:29.834Z,24.13
2023-03-14T04:40:29.778Z,24.11
2023-03-14T04:41:29.730Z,24.17
2023-03-14T04:42:29.696Z,24.12
2023-03-14T04:43:29.645Z,24.09
2023-03-14T04:44:29.612Z,24.11
2023-03-14T04:45:29.583Z,24.15
2023-03-14T04:46:29.579Z,24.11
2023-03-14T04:47:29.500Z,24.13
2023-03-14T04:48:29.456Z,24.12
2023-03-14T04:49:29.421Z,24.15
2023-03-14T04:50:29.413Z,24.12
2023-03-14T04:51:29.349Z,24.13
2023-03-14T04:52:29.313Z,24.07
2023-03-14T04:53:31.203Z,24.11
2023-03-14T04:54:29.277Z,24.11
2023-03-14T04:55:29.209Z,24.18
2023-03-14T04:56:29.159Z,24.12
2023-03-14T04:57:29.111Z,24.17
2023-03-14T04:58:29.076Z,24.11
2023-03-14T04:59:29.067Z,24.08
2023-03-14T05:00:29.019Z,24.14
2023-03-14T05:01:29.034Z,24.15
2023-03-14T05:02:28.974Z,24.19
2023-03-14T05:03:28.913Z,24.16
2023-03-14T05:04:28.890Z,24.16
2023-03-14T05:05:28.859Z,24.15
2023-03-14T05:06:28.799Z,24.13
2023-03-14T05:07:28.750Z,24.15
2023-03-14T05:08:28.717Z,24.15
2023-03-14T05:09:28.685Z,24.13
2023-03-14T05:10:28.660Z,24.13
2023-03-14T05:11:28.630Z,24.09
2023-03-14T05:12:28.591Z,24.17
2023-03-14T05:13:28.532Z,24.14
2023-03-14T05:14:28.498Z,24.15
2023-03-14T05:15:28.494Z,24.15
2023-03-14T05:16:28.528Z,24.12
2023-03-14T05:17:28.427Z,24.15
2023-03-14T05:18:28.363Z,24.18
2023-03-14T05:19:28.360Z,24.15
2023-03-14T05:20:28.287Z,24.17
2023-03-14T05:21:28.255Z,24.15
2023-03-14T05:22:28.231Z,24.19
2023-03-14T05:23:28.193Z,24.12
2023-03-14T05:24:28.198Z,24.12
2023-03-14T05:25:28.134Z,24.11
2023-03-14T05:26:28.094Z,24.15
2023-03-14T05:27:28.064Z,24.17
2023-03-14T05:28:28.035Z,24.16
2023-03-14T05:29:28.003Z,24.16
2023-03-14T05:30:27.961Z,24.17
2023-03-14T05:31:28.011Z,24.17
2023-03-14T05:32:27.937Z,24.16
2023-03-14T05:33:27.865Z,24.19
2023-03-14T05:34:27.839Z,24.18
2023-03-14T05:35:27.802Z,24.18
2023-03-14T05:36:27.797Z,24.18
2023-03-14T05:37:27.737Z,24.16
2023-03-14T05:38:27.713Z,24.12
2023-03-14T05:39:27.669Z,24.12
2023-03-14T05:40:27.644Z,24.15
2023-03-14T05:41:27.635Z,24.17
2023-03-14T05:42:27.559Z,24.15
2023-03-14T05:43:27.589Z,24.14
2023-03-14T05:44:27.502Z,24.15
2023-03-14T05:45:27.519Z,24.17
2023-03-14T05:46:27.430Z,24.15
2023-03-14T05:47:27.398Z,24.17
2023-03-14T05:48:27.377Z,24.18
2023-03-14T05:49:27.339Z,24.13
2023-03-14T05:50:27.292Z,24.13
2023-03-14T05:51:27.267Z,24.12
2023-03-14T05:52:27.241Z,24.15
2023-03-14T05:53:27.202Z,24.15
2023-03-14T05:54:27.174Z,24.17
2023-03-14T05:55:27.156Z,24.16
2023-03-14T05:56:27.102Z,24.18
2023-03-14T05:57:27.088Z,24.13
2023-03-14T05:58:27.065Z,24.17
2023-03-14T05:59:27.021Z,24.17
2023-03-14T06:00:26.992Z,24.18
2023-03-14T06:01:26.970Z,24.19
2023-03-14T06:02:27.011Z,24.18
2023-03-14T06:03:26.933Z,24.18
2023-03-14T06:04:26.868Z,24.15
2023-03-14T06:05:26.808Z,24.15
2023-03-14T06:06:26.776Z,24.15
2023-03-14T06:07:26.730Z,24.17
2023-03-14T06:08:26.719Z,24.18
2023-03-14T06:09:26.685Z,24.19
2023-03-14T06:10:26.624Z,24.19
2023-03-14T06:11:26.579Z,24.19
2023-03-14T06:12:26.543Z,24.18
2023-03-14T06:13:26.503Z,24.21
2023-03-14T06:14:26.466Z,24.21
2023-03-14T06:15:26.452Z,24.22
2023-03-14T06:16:26.440Z,24.21
2023-03-14T06:17:26.346Z,24.23
2023-03-14T06:18:26.301Z,24.21
2023-03-14T06:19:26.268Z,24.28
2023-03-14T06:20:26.236Z,24.23
2023-03-14T06:21:26.235Z,24.23
2023-03-14T06:22:26.168Z,24.21
2023-03-14T06:23:26.131Z,24.23
2023-03-14T06:24:26.105Z,24.23
2023-03-14T06:25:26.068Z,24.26
2023-03-14T06:26:26.050Z,24.19
2023-03-14T06:27:25.994Z,24.21
2023-03-14T06:28:26.340Z,24.21
2023-03-14T06:29:25.907Z,24.18
2023-03-14T06:30:26.453Z,24.22
2023-03-14T06:31:25.899Z,24.26
2023-03-14T06:32:25.905Z,24.21
2023-03-14T06:33:25.783Z,24.25
2023-03-14T06:34:25.756Z,25.11
2023-03-14T06:35:25.746Z,25.32
2023-03-14T06:36:25.695Z,25.98
2023-03-14T06:37:25.660Z,26.73
2023-03-14T06:38:26.434Z,27.12
2023-03-14T06:39:25.700Z,27.52
2023-03-14T06:40:25.532Z,27.59
2023-03-14T06:41:25.533Z,27.72
2023-03-14T06:42:25.460Z,27.99
2023-03-14T06:43:25.594Z,28.32
2023-03-14T06:44:25.387Z,28.41
2023-03-14T06:45:25.374Z,28.79
2023-03-14T06:46:25.436Z,29.12
2023-03-14T06:47:25.311Z,29.61
2023-03-14T06:48:25.259Z,29.53
2023-03-14T06:49:25.214Z,29.36
2023-03-14T06:50:25.178Z,29.06
2023-03-14T06:51:25.170Z,28.53
2023-03-14T06:52:25.467Z,28.29
2023-03-14T06:53:25.951Z,28.68
2023-03-14T06:54:25.085Z,28.61
2023-03-14T06:55:25.032Z,28.76
2023-03-14T06:56:24.999Z,29.02
2023-03-14T06:57:24.972Z,28.89
2023-03-14T06:58:24.932Z,29.23
2023-03-14T06:59:24.958Z,29.00
2023-03-14T07:00:24.917Z,29.31
2023-03-14T07:01:24.959Z,29.44
2023-03-14T07:02:35.981Z,29.70
2023-03-14T07:03:25.754Z,29.78
2023-03-14T07:04:24.852Z,29.63
2023-03-14T07:05:24.711Z,29.29
2023-03-14T07:06:24.651Z,30.02
2023-03-14T07:07:24.950Z,29.54
2023-03-14T07:08:24.584Z,29.12
2023-03-14T07:09:24.572Z,29.42
2023-03-14T07:10:24.570Z,29.43
2023-03-14T07:11:24.527Z,29.90
2023-03-14T07:12:24.477Z,29.97
2023-03-14T07:13:24.467Z,30.11
2023-03-14T07:14:24.415Z,29.83
2023-03-14T07:15:24.385Z,30.12
2023-03-14T07:16:24.358Z,30.19
2023-03-14T07:17:24.323Z,30.25
2023-03-14T07:18:24.287Z,29.58
2023-03-14T07:19:24.273Z,30.85
2023-03-14T07:20:24.233Z,30.72
2023-03-14T07:21:24.213Z,30.66
2023-03-14T07:22:24.182Z,29.51
2023-03-14T07:23:24.161Z,29.69
2023-03-14T07:24:24.117Z,29.71
2023-03-14T07:25:24.087Z,29.55
2023-03-14T07:26:24.050Z,29.62
2023-03-14T07:27:24.031Z,30.09
2023-03-14T07:28:23.995Z,29.71
2023-03-14T07:29:23.958Z,29.93
2023-03-14T07:30:23.943Z,30.35
2023-03-14T07:31:23.940Z,30.03
2023-03-14T07:32:23.908Z,30.79
2023-03-14T07:33:23.830Z,31.23
2023-03-14T07:34:23.793Z,31.24
2023-03-14T07:35:23.749Z,31.34
2023-03-14T07:36:23.706Z,31.44
2023-03-14T07:37:23.673Z,31.47
2023-03-14T07:38:23.740Z,31.50
2023-03-14T07:39:23.596Z,31.50
2023-03-14T07:40:23.576Z,31.67
2023-03-14T07:41:23.534Z,32.00
2023-03-14T07:42:23.511Z,31.94
2023-03-14T07:43:23.494Z,31.99
2023-03-14T07:44:23.442Z,32.09
2023-03-14T07:45:24.944Z,32.11
2023-03-14T07:46:23.424Z,32.11
2023-03-14T07:47:23.341Z,32.10
2023-03-14T07:48:23.285Z,32.20
2023-03-14T07:49:23.257Z,32.20
2023-03-14T07:50:23.205Z,32.32
2023-03-14T07:51:23.150Z,32.37
2023-03-14T07:52:23.101Z,32.40
2023-03-14T07:53:23.067Z,32.31
2023-03-14T07:54:23.038Z,32.37
2023-03-14T07:55:22.957Z,32.37
2023-03-14T07:56:22.906Z,32.47
2023-03-14T07:57:22.916Z,32.55
2023-03-14T07:58:22.969Z,32.58
2023-03-14T07:59:22.782Z,32.66
2023-03-14T08:00:22.757Z,32.56
2023-03-14T08:01:22.656Z,32.59
2023-03-14T08:02:22.633Z,32.53
2023-03-14T08:03:22.591Z,32.52
2023-03-14T08:04:22.525Z,32.59
2023-03-14T08:05:22.558Z,32.62
2023-03-14T08:06:22.493Z,32.56
2023-03-14T08:07:22.427Z,32.40
2023-03-14T08:08:22.569Z,32.55
2023-03-14T08:09:22.295Z,32.49
2023-03-14T08:10:23.023Z,32.57
2023-03-14T08:11:22.988Z,32.43
2023-03-14T08:12:22.282Z,32.60
2023-03-14T08:13:22.233Z,32.54
2023-03-14T08:14:22.063Z,32.55
2023-03-14T08:15:22.025Z,32.53
2023-03-14T08:16:22.029Z,32.49
2023-03-14T08:17:21.912Z,32.53
2023-03-14T08:18:21.859Z,32.67
2023-03-14T08:19:21.833Z,32.58
2023-03-14T08:20:21.794Z,32.59
2023-03-14T08:21:21.725Z,32.53
2023-03-14T08:22:21.671Z,32.51
2023-03-14T08:23:21.642Z,32.43
2023-03-14T08:24:21.587Z,32.53
2023-03-14T08:25:21.596Z,32.55
2023-03-14T08:26:21.504Z,32.53
2023-03-14T08:27:21.431Z,32.53
2023-03-14T08:28:21.384Z,32.44
2023-03-14T08:29:21.338Z,32.52
2023-03-14T08:30:21.281Z,32.44
2023-03-14T08:31:21.293Z,32.37
2023-03-14T08:32:21.304Z,32.46
2023-03-14T08:33:21.125Z,32.20
2023-03-14T08:34:21.123Z,32.46
2023-03-14T08:35:21.134Z,32.45
2023-03-14T08:36:23.829Z,32.44
2023-03-14T08:37:26.698Z,32.35
2023-03-14T08:38:21.914Z,32.33
2023-03-14T08:39:20.964Z,32.27
2023-03-14T08:40:20.792Z,32.30
2023-03-14T08:41:20.711Z,32.14
2023-03-14T08:42:20.670Z,31.92
2023-03-14T08:43:20.626Z,31.84
2023-03-14T08:44:21.028Z,31.74
2023-03-14T08:45:20.566Z,31.65
2023-03-14T08:46:20.535Z,31.66
2023-03-14T08:47:20.553Z,31.76
2023-03-14T08:48:20.405Z,31.65
2023-03-14T08:49:20.391Z,31.72
2023-03-14T08:50:20.316Z,31.59
2023-03-14T08:51:20.262Z,31.41
2023-03-14T08:52:20.243Z,31.36
2023-03-14T08:53:20.206Z,31.04
2023-03-14T08:54:20.172Z,31.18
2023-03-14T08:55:20.083Z,30.70
2023-03-14T08:56:20.032Z,30.51
2023-03-14T08:57:19.983Z,30.31
2023-03-14T08:58:19.954Z,30.59
2023-03-14T08:59:19.882Z,30.41
2023-03-14T09:00:19.848Z,30.30
2023-03-14T09:01:19.940Z,30.22
2023-03-14T09:02:19.785Z,29.78
2023-03-14T09:03:19.732Z,29.90
2023-03-14T09:04:19.724Z,29.97
2023-03-14T09:05:19.602Z,29.82
2023-03-14T09:06:19.550Z,29.76
2023-03-14T09:07:19.525Z,29.60
2023-03-14T09:08:19.478Z,29.60
2023-03-14T09:09:19.439Z,29.43
2023-03-14T09:10:19.376Z,29.14
2023-03-14T09:11:19.367Z,29.16
2023-03-14T09:12:19.302Z,29.10
2023-03-14T09:13:19.239Z,29.01
2023-03-14T09:14:20.489Z,29.02
2023-03-14T09:15:19.487Z,29.05
2023-03-14T09:16:19.411Z,28.90
2023-03-14T09:17:19.307Z,28.83
2023-03-14T09:18:19.252Z,28.86
2023-03-14T09:19:19.209Z,28.96
2023-03-14T09:20:19.147Z,28.75
2023-03-14T09:21:19.085Z,28.72
2023-03-14T09:22:19.024Z,28.97
2023-03-14T09:23:18.973Z,29.31
2023-03-14T09:24:18.917Z,29.03
2023-03-14T09:25:18.892Z,29.06
2023-03-14T09:26:18.819Z,28.94
2023-03-14T09:27:18.827Z,28.62
2023-03-14T09:28:18.716Z,28.71
2023-03-14T09:29:18.653Z,29.11
2023-03-14T09:30:18.636Z,28.83
2023-03-14T09:31:18.632Z,28.73
2023-03-14T09:32:18.608Z,28.69
2023-03-14T09:33:18.463Z,28.72
2023-03-14T09:34:18.629Z,28.58
2023-03-14T09:35:18.396Z,28.45
2023-03-14T09:36:18.286Z,28.27
2023-03-14T09:37:18.255Z,28.17
2023-03-14T09:38:18.199Z,27.94
2023-03-14T09:39:18.127Z,27.93
2023-03-14T09:40:18.115Z,28.05
2023-03-14T09:41:18.031Z,26.90
2023-03-14T09:42:17.973Z,25.14
2023-03-14T09:43:17.932Z,25.00
2023-03-14T09:44:17.896Z,25.01
2023-03-14T09:45:17.861Z,25.22
2023-03-14T09:46:17.855Z,26.07
2023-03-14T09:47:17.788Z,26.91
2023-03-14T09:48:17.825Z,27.07
2023-03-14T09:49:17.722Z,27.32
2023-03-14T09:50:17.902Z,27.53
2023-03-14T09:51:17.661Z,27.37
2023-03-14T09:52:17.624Z,26.64
2023-03-14T09:53:17.644Z,26.69
2023-03-14T09:54:17.560Z,26.74
2023-03-14T09:55:17.528Z,26.55
2023-03-14T09:56:17.499Z,26.62
2023-03-14T09:57:17.499Z,26.44
2023-03-14T09:58:17.475Z,26.42
2023-03-14T09:59:17.441Z,26.56
2023-03-14T10:00:17.423Z,26.50
2023-03-14T10:01:17.417Z,27.21
2023-03-14T10:02:17.333Z,27.10
2023-03-14T10:03:17.339Z,28.04
2023-03-14T10:04:17.307Z,27.27
2023-03-14T10:05:17.270Z,26.75
2023-03-14T10:06:17.235Z,26.86
2023-03-14T10:07:17.236Z,27.01
2023-03-14T10:08:17.169Z,26.75
2023-03-14T10:09:17.188Z,26.45
2023-03-14T10:10:17.104Z,26.47
2023-03-14T10:11:17.092Z,26.59
2023-03-14T10:12:17.089Z,27.04
2023-03-14T10:13:17.015Z,26.61
2023-03-14T10:14:16.973Z,26.73
2023-03-14T10:15:16.969Z,26.85
2023-03-14T10:16:16.932Z,27.02
2023-03-14T10:17:16.878Z,26.79
2023-03-14T10:18:16.871Z,26.56
2023-03-14T10:19:16.817Z,26.49
2023-03-14T10:20:16.811Z,26.91
2023-03-14T10:21:16.784Z,26.81
2023-03-14T10:22:16.750Z,26.61
2023-03-14T10:23:16.714Z,26.89
2023-03-14T10:24:16.678Z,27.18
2023-03-14T10:25:16.654Z,27.22
2023-03-14T10:26:16.615Z,27.49
2023-03-14T10:27:16.993Z,27.68
2023-03-14T10:28:16.573Z,27.77
2023-03-14T10:29:16.529Z,28.07
2023-03-14T10:30:16.558Z,27.82
2023-03-14T10:31:16.591Z,27.69
2023-03-14T10:32:16.459Z,27.87
2023-03-14T10:33:16.428Z,28.01
2023-03-14T10:34:16.393Z,28.15
2023-03-14T10:35:16.383Z,28.16
2023-03-14T10:36:17.721Z,27.80
2023-03-14T10:37:16.376Z,27.85
2023-03-14T10:38:16.309Z,28.25
2023-03-14T10:39:16.300Z,27.97
2023-03-14T10:40:16.274Z,27.82
2023-03-14T10:41:16.244Z,28.99
2023-03-14T10:42:16.245Z,29.14
2023-03-14T10:43:16.222Z,29.83
2023-03-14T10:44:16.180Z,30.76
2023-03-14T10:45:17.033Z,30.85
2023-03-14T10:46:16.218Z,30.79
2023-03-14T10:47:16.151Z,30.33
2023-03-14T10:48:16.090Z,30.31
2023-03-14T10:49:16.082Z,30.27
2023-03-14T10:50:16.060Z,30.18
2023-03-14T10:51:16.088Z,30.32
2023-03-14T10:52:15.983Z,30.35
2023-03-14T10:53:15.927Z,30.38
2023-03-14T10:54:15.916Z,30.51
2023-03-14T10:55:15.855Z,30.60
2023-03-14T10:56:15.855Z,30.59
2023-03-14T10:57:15.794Z,30.63
2023-03-14T10:58:15.767Z,30.66
2023-03-14T10:59:15.734Z,30.86
2023-03-14T11:00:15.773Z,30.97
2023-03-14T11:01:16.087Z,30.88
2023-03-14T11:02:15.608Z,30.96
2023-03-14T11:03:15.595Z,31.08
2023-03-14T11:04:15.559Z,31.01
2023-03-14T11:05:15.485Z,31.25
2023-03-14T11:06:15.482Z,31.17
2023-03-14T11:07:15.393Z,31.25
2023-03-14T11:08:15.345Z,31.27
2023-03-14T11:09:15.319Z,31.39
2023-03-14T11:10:15.271Z,31.46
2023-03-14T11:11:15.255Z,31.36
2023-03-14T11:12:15.186Z,31.43
2023-03-14T11:13:15.144Z,31.45
2023-03-14T11:14:15.118Z,31.48
2023-03-14T11:15:15.085Z,31.61
2023-03-14T11:16:15.063Z,31.62
2023-03-14T11:17:14.976Z,31.61
2023-03-14T11:18:14.947Z,31.68
2023-03-14T11:19:14.979Z,31.72
2023-03-14T11:20:15.054Z,31.74
2023-03-14T11:21:14.844Z,31.75
2023-03-14T11:22:14.794Z,31.80
2023-03-14T11:23:14.768Z,31.77
2023-03-14T11:24:14.747Z,31.88
2023-03-14T11:25:14.688Z,31.91
2023-03-14T11:26:14.686Z,31.93
2023-03-14T11:27:14.607Z,32.03
2023-03-14T11:28:14.557Z,32.05
2023-03-14T11:29:14.528Z,32.05
2023-03-14T11:30:14.540Z,32.10
2023-03-14T11:31:14.540Z,32.15
2023-03-14T11:32:14.399Z,32.07
2023-03-14T11:33:14.352Z,32.22
2023-03-14T11:34:14.323Z,32.11
2023-03-14T11:35:14.332Z,32.23
2023-03-14T11:36:14.313Z,32.51
2023-03-14T11:37:14.219Z,32.40
2023-03-14T11:38:14.191Z,32.43
2023-03-14T11:39:14.127Z,31.86
2023-03-14T11:40:14.270Z,31.66
2023-03-14T11:41:14.085Z,31.50
2023-03-14T11:42:14.101Z,31.37
2023-03-14T11:43:14.026Z,31.07
2023-03-14T11:44:13.957Z,31.04
2023-03-14T11:45:13.923Z,30.82
2023-03-14T11:46:13.903Z,30.64
2023-03-14T11:47:13.839Z,30.54
2023-03-14T11:48:13.962Z,30.36
2023-03-14T11:49:13.780Z,30.26
2023-03-14T11:50:13.746Z,30.19
2023-03-14T11:51:13.655Z,30.02
2023-03-14T11:52:13.625Z,29.91
2023-03-14T11:53:13.596Z,29.80
2023-03-14T11:54:13.567Z,29.67
2023-03-14T11:55:13.480Z,29.62
2023-03-14T11:56:13.442Z,29.52
2023-03-14T11:57:13.392Z,29.51
2023-03-14T11:58:13.354Z,29.47
2023-03-14T11:59:13.354Z,29.56
2023-03-14T12:00:13.330Z,29.51
2023-03-14T12:01:13.207Z,29.59
2023-03-14T12:02:14.126Z,29.43
2023-03-14T12:03:13.133Z,29.32
2023-03-14T12:04:14.102Z,29.14
2023-03-14T12:05:13.034Z,29.10
2023-03-14T12:06:13.029Z,29.09
2023-03-14T12:07:13.673Z,29.05
2023-03-14T12:08:12.908Z,29.00
2023-03-14T12:09:12.861Z,28.92
2023-03-14T12:10:12.837Z,28.92
2023-03-14T12:11:12.769Z,28.88
2023-03-14T12:12:12.759Z,28.80
2023-03-14T12:13:12.727Z,28.76
2023-03-14T12:14:13.562Z,28.74
2023-03-14T12:15:12.612Z,28.68
2023-03-14T12:16:12.664Z,28.58
2023-03-14T12:17:12.635Z,28.58
2023-03-14T12:18:12.487Z,28.52
2023-03-14T12:19:12.436Z,28.43
2023-03-14T12:20:12.469Z,28.36
2023-03-14T12:21:12.524Z,28.37
2023-03-14T12:22:13.085Z,28.29
2023-03-14T12:23:12.277Z,28.29
2023-03-14T12:24:12.259Z,28.21
2023-03-14T12:25:12.150Z,28.13
2023-03-14T12:26:12.111Z,28.11
2023-03-14T12:27:12.156Z,28.08
2023-03-14T12:28:12.018Z,28.10
2023-03-14T12:29:11.979Z,27.97
2023-03-14T12:30:11.930Z,28.00
2023-03-14T12:31:11.909Z,27.95
2023-03-14T12:32:11.847Z,27.86
2023-03-14T12:33:11.783Z,27.85
2023-03-14T12:34:11.784Z,27.78
2023-03-14T12:35:11.707Z,27.75
2023-03-14T12:36:11.659Z,27.71
2023-03-14T12:37:11.610Z,27.73
2023-03-14T12:38:11.551Z,27.70
2023-03-14T12:39:11.524Z,27.67
2023-03-14T12:40:11.452Z,27.64
2023-03-14T12:41:11.411Z,27.68
2023-03-14T12:42:11.379Z,27.68
2023-03-14T12:43:11.325Z,27.63
2023-03-14T12:44:11.278Z,27.64
2023-03-14T12:45:11.222Z,27.65
2023-03-14T12:46:11.258Z,27.64
2023-03-14T12:47:11.122Z,27.64
2023-03-14T12:48:11.076Z,27.59
2023-03-14T12:49:11.054Z,27.64
2023-03-14T12:50:11.010Z,27.59
2023-03-14T12:51:10.934Z,27.61
2023-03-14T12:52:10.868Z,27.56